sensor_id;sensor_type;location;lat;lon;timestamp;P1;durP1;ratioP1;P2;durP2;ratioP2
74632;SDS011;63139;52.018;8.552;2023-02-28T00:01:23;14.07;;;6.28;;
74632;SDS011;63139;52.018;8.552;2023-02-28T00:03:53;12.60;;;6.47;;
74632;SDS011;63139;52.018;8.552;2023-02-28T00:06:21;14.07;;;7.70;;
74632;SDS011;63139;52.018;8.552;2023-02-28T00:08:49;14.02;;;6.65;;
74632;SDS011;63139;52.018;8.552;2023-02-28T00:11:16;8.23;;;4.95;;
74632;SDS011;63139;52.018;8.552;2023-02-28T00:13:46;14.27;;;5.82;;
74632;SDS011;63139;52.018;8.552;2023-02-28T00:16:15;9.80;;;4.95;;
74632;SDS011;63139;52.018;8.552;2023-02-28T00:18:44;10.27;;;4.68;;
74632;SDS011;63139;52.018;8.552;2023-02-28T00:21:15;10.55;;;5.68;;
74632;SDS011;63139;52.018;8.552;2023-02-28T00:23:43;6.80;;;4.40;;
74632;SDS011;63139;52.018;8.552;2023-02-28T00:26:11;8.70;;;5.57;;
74632;SDS011;63139;52.018;8.552;2023-02-28T00:28:42;7.95;;;4.72;;
74632;SDS011;63139;52.018;8.552;2023-02-28T00:31:10;10.75;;;6.57;;
74632;SDS011;63139;52.018;8.552;2023-02-28T00:33:38;11.85;;;5.90;;
74632;SDS011;63139;52.018;8.552;2023-02-28T00:36:07;9.23;;;5.20;;
74632;SDS011;63139;52.018;8.552;2023-02-28T00:38:37;10.85;;;6.03;;
74632;SDS011;63139;52.018;8.552;2023-02-28T00:41:06;8.70;;;5.05;;
74632;SDS011;63139;52.018;8.552;2023-02-28T00:43:35;12.30;;;5.68;;
74632;SDS011;63139;52.018;8.552;2023-02-28T00:46:04;11.85;;;5.72;;
74632;SDS011;63139;52.018;8.552;2023-02-28T00:48:32;6.70;;;3.67;;
74632;SDS011;63139;52.018;8.552;2023-02-28T00:51:00;5.57;;;3.45;;
74632;SDS011;63139;52.018;8.552;2023-02-28T00:53:28;8.07;;;4.47;;
74632;SDS011;63139;52.018;8.552;2023-02-28T00:56:00;7.97;;;4.10;;
74632;SDS011;63139;52.018;8.552;2023-02-28T00:58:28;8.75;;;4.25;;
74632;SDS011;63139;52.018;8.552;2023-02-28T01:00:56;8.80;;;4.97;;
74632;SDS011;63139;52.018;8.552;2023-02-28T01:03:24;6.22;;;4.15;;
74632;SDS011;63139;52.018;8.552;2023-02-28T01:05:52;9.93;;;4.80;;
74632;SDS011;63139;52.018;8.552;2023-02-28T01:08:20;8.80;;;4.93;;
74632;SDS011;63139;52.018;8.552;2023-02-28T01:10:49;9.30;;;4.55;;
74632;SDS011;63139;52.018;8.552;2023-02-28T01:13:19;11.85;;;4.97;;
74632;SDS011;63139;52.018;8.552;2023-02-28T01:15:49;8.38;;;4.70;;
74632;SDS011;63139;52.018;8.552;2023-02-28T01:18:18;8.80;;;5.10;;
74632;SDS011;63139;52.018;8.552;2023-02-28T01:20:47;7.85;;;4.22;;
74632;SDS011;63139;52.018;8.552;2023-02-28T01:23:15;8.23;;;4.53;;
74632;SDS011;63139;52.018;8.552;2023-02-28T01:25:43;10.18;;;5.47;;
74632;SDS011;63139;52.018;8.552;2023-02-28T01:28:11;6.60;;;3.97;;
74632;SDS011;63139;52.018;8.552;2023-02-28T01:30:40;6.65;;;3.70;;
74632;SDS011;63139;52.018;8.552;2023-02-28T01:33:08;9.80;;;5.32;;
74632;SDS011;63139;52.018;8.552;2023-02-28T01:35:36;9.73;;;4.68;;
74632;SDS011;63139;52.018;8.552;2023-02-28T01:38:03;9.82;;;4.90;;
74632;SDS011;63139;52.018;8.552;2023-02-28T01:40:47;10.48;;;4.30;;
74632;SDS011;63139;52.018;8.552;2023-02-28T01:43:17;11.40;;;5.15;;
74632;SDS011;63139;52.018;8.552;2023-02-28T01:45:52;10.70;;;5.07;;
74632;SDS011;63139;52.018;8.552;2023-02-28T01:48:21;8.02;;;4.25;;
74632;SDS011;63139;52.018;8.552;2023-02-28T01:50:53;8.15;;;4.05;;
74632;SDS011;63139;52.018;8.552;2023-02-28T01:53:26;9.55;;;4.97;;
74632;SDS011;63139;52.018;8.552;2023-02-28T01:55:59;9.63;;;4.38;;
74632;SDS011;63139;52.018;8.552;2023-02-28T01:58:27;9.27;;;4.28;;
74632;SDS011;63139;52.018;8.552;2023-02-28T02:00:56;8.10;;;4.10;;
74632;SDS011;63139;52.018;8.552;2023-02-28T02:03:25;7.00;;;3.85;;
74632;SDS011;63139;52.018;8.552;2023-02-28T02:05:53;10.32;;;5.15;;
74632;SDS011;63139;52.018;8.552;2023-02-28T02:08:21;10.02;;;4.20;;
74632;SDS011;63139;52.018;8.552;2023-02-28T02:10:51;8.63;;;4.30;;
74632;SDS011;63139;52.018;8.552;2023-02-28T02:13:30;9.93;;;5.00;;
74632;SDS011;63139;52.018;8.552;2023-02-28T02:16:14;8.25;;;3.65;;
74632;SDS011;63139;52.018;8.552;2023-02-28T02:18:57;12.35;;;5.75;;
74632;SDS011;63139;52.018;8.552;2023-02-28T02:21:50;8.10;;;4.13;;
74632;SDS011;63139;52.018;8.552;2023-02-28T02:27:48;8.65;;;4.40;;
74632;SDS011;63139;52.018;8.552;2023-02-28T02:30:33;7.40;;;4.28;;
74632;SDS011;63139;52.018;8.552;2023-02-28T02:33:27;12.18;;;4.68;;
74632;SDS011;63139;52.018;8.552;2023-02-28T02:36:11;10.70;;;5.05;;
74632;SDS011;63139;52.018;8.552;2023-02-28T02:38:47;10.52;;;5.15;;
74632;SDS011;63139;52.018;8.552;2023-02-28T02:41:24;9.43;;;5.05;;
74632;SDS011;63139;52.018;8.552;2023-02-28T02:43:56;7.13;;;4.10;;
74632;SDS011;63139;52.018;8.552;2023-02-28T02:46:30;11.80;;;5.30;;
74632;SDS011;63139;52.018;8.552;2023-02-28T02:49:03;10.27;;;5.05;;
74632;SDS011;63139;52.018;8.552;2023-02-28T02:51:37;8.13;;;4.05;;
74632;SDS011;63139;52.018;8.552;2023-02-28T02:54:08;9.73;;;4.03;;
74632;SDS011;63139;52.018;8.552;2023-02-28T02:56:42;8.57;;;4.70;;
74632;SDS011;63139;52.018;8.552;2023-02-28T02:59:13;11.02;;;5.50;;
74632;SDS011;63139;52.018;8.552;2023-02-28T03:01:48;12.88;;;5.47;;
74632;SDS011;63139;52.018;8.552;2023-02-28T03:04:19;10.55;;;4.63;;
74632;SDS011;63139;52.018;8.552;2023-02-28T03:06:51;8.20;;;4.18;;
74632;SDS011;63139;52.018;8.552;2023-02-28T03:09:20;8.43;;;4.60;;
74632;SDS011;63139;52.018;8.552;2023-02-28T03:11:48;11.30;;;5.13;;
74632;SDS011;63139;52.018;8.552;2023-02-28T03:14:25;9.38;;;5.90;;
74632;SDS011;63139;52.018;8.552;2023-02-28T03:17:16;8.60;;;4.55;;
74632;SDS011;63139;52.018;8.552;2023-02-28T03:20:01;11.07;;;4.45;;
74632;SDS011;63139;52.018;8.552;2023-02-28T03:25:20;7.85;;;4.13;;
74632;SDS011;63139;52.018;8.552;2023-02-28T03:27:57;7.25;;;3.70;;
74632;SDS011;63139;52.018;8.552;2023-02-28T03:30:33;7.68;;;4.68;;
74632;SDS011;63139;52.018;8.552;2023-02-28T03:33:06;7.78;;;4.47;;
74632;SDS011;63139;52.018;8.552;2023-02-28T03:35:36;8.35;;;4.78;;
74632;SDS011;63139;52.018;8.552;2023-02-28T03:38:10;9.25;;;4.95;;
74632;SDS011;63139;52.018;8.552;2023-02-28T03:40:44;10.73;;;5.47;;
74632;SDS011;63139;52.018;8.552;2023-02-28T03:43:18;13.00;;;5.82;;
74632;SDS011;63139;52.018;8.552;2023-02-28T03:45:51;10.35;;;5.20;;
74632;SDS011;63139;52.018;8.552;2023-02-28T03:48:23;11.82;;;6.15;;
74632;SDS011;63139;52.018;8.552;2023-02-28T03:50:55;10.32;;;5.28;;
74632;SDS011;63139;52.018;8.552;2023-02-28T03:53:27;12.05;;;5.88;;
74632;SDS011;63139;52.018;8.552;2023-02-28T03:55:59;10.43;;;5.57;;
74632;SDS011;63139;52.018;8.552;2023-02-28T03:58:32;7.93;;;4.80;;
74632;SDS011;63139;52.018;8.552;2023-02-28T04:01:07;8.75;;;5.03;;
74632;SDS011;63139;52.018;8.552;2023-02-28T04:03:38;13.25;;;6.50;;
74632;SDS011;63139;52.018;8.552;2023-02-28T04:06:07;13.30;;;6.68;;
74632;SDS011;63139;52.018;8.552;2023-02-28T04:08:42;14.38;;;6.57;;
74632;SDS011;63139;52.018;8.552;2023-02-28T04:11:12;14.18;;;6.97;;
74632;SDS011;63139;52.018;8.552;2023-02-28T04:13:46;13.13;;;7.10;;
74632;SDS011;63139;52.018;8.552;2023-02-28T04:16:14;12.02;;;7.07;;
74632;SDS011;63139;52.018;8.552;2023-02-28T04:18:59;10.55;;;6.40;;
74632;SDS011;63139;52.018;8.552;2023-02-28T04:21:29;13.32;;;7.40;;
74632;SDS011;63139;52.018;8.552;2023-02-28T04:23:59;11.10;;;5.35;;
74632;SDS011;63139;52.018;8.552;2023-02-28T04:26:28;10.35;;;4.90;;
74632;SDS011;63139;52.018;8.552;2023-02-28T04:28:57;10.10;;;5.25;;
74632;SDS011;63139;52.018;8.552;2023-02-28T04:31:25;13.32;;;7.10;;
74632;SDS011;63139;52.018;8.552;2023-02-28T04:33:54;8.70;;;5.43;;
74632;SDS011;63139;52.018;8.552;2023-02-28T04:36:22;10.75;;;6.40;;
74632;SDS011;63139;52.018;8.552;2023-02-28T04:38:50;10.00;;;5.20;;
74632;SDS011;63139;52.018;8.552;2023-02-28T04:41:19;18.70;;;6.75;;
74632;SDS011;63139;52.018;8.552;2023-02-28T04:43:47;12.77;;;6.32;;
74632;SDS011;63139;52.018;8.552;2023-02-28T04:46:15;9.50;;;5.03;;
74632;SDS011;63139;52.018;8.552;2023-02-28T04:48:44;11.13;;;5.65;;
74632;SDS011;63139;52.018;8.552;2023-02-28T04:51:13;13.18;;;6.53;;
74632;SDS011;63139;52.018;8.552;2023-02-28T04:53:42;10.82;;;6.50;;
74632;SDS011;63139;52.018;8.552;2023-02-28T04:56:12;11.27;;;5.18;;
74632;SDS011;63139;52.018;8.552;2023-02-28T04:58:43;8.90;;;4.95;;
74632;SDS011;63139;52.018;8.552;2023-02-28T05:01:19;15.63;;;6.75;;
74632;SDS011;63139;52.018;8.552;2023-02-28T05:03:48;12.45;;;6.28;;
74632;SDS011;63139;52.018;8.552;2023-02-28T05:06:16;13.82;;;7.28;;
74632;SDS011;63139;52.018;8.552;2023-02-28T05:08:45;10.13;;;5.75;;
74632;SDS011;63139;52.018;8.552;2023-02-28T05:11:14;17.00;;;7.35;;
74632;SDS011;63139;52.018;8.552;2023-02-28T05:13:45;10.02;;;5.03;;
74632;SDS011;63139;52.018;8.552;2023-02-28T05:16:14;15.43;;;7.03;;
74632;SDS011;63139;52.018;8.552;2023-02-28T05:18:42;12.13;;;6.68;;
74632;SDS011;63139;52.018;8.552;2023-02-28T05:21:23;13.65;;;6.35;;
74632;SDS011;63139;52.018;8.552;2023-02-28T05:23:54;15.02;;;7.13;;
74632;SDS011;63139;52.018;8.552;2023-02-28T05:26:23;14.98;;;6.60;;
74632;SDS011;63139;52.018;8.552;2023-02-28T05:28:53;11.15;;;5.70;;
74632;SDS011;63139;52.018;8.552;2023-02-28T05:31:22;13.40;;;6.43;;
74632;SDS011;63139;52.018;8.552;2023-02-28T05:33:50;10.23;;;6.40;;
74632;SDS011;63139;52.018;8.552;2023-02-28T05:36:17;12.13;;;6.70;;
74632;SDS011;63139;52.018;8.552;2023-02-28T05:38:46;11.68;;;6.10;;
74632;SDS011;63139;52.018;8.552;2023-02-28T05:41:15;15.27;;;6.38;;
74632;SDS011;63139;52.018;8.552;2023-02-28T05:43:43;11.95;;;7.05;;
74632;SDS011;63139;52.018;8.552;2023-02-28T05:46:12;12.95;;;6.50;;
74632;SDS011;63139;52.018;8.552;2023-02-28T05:48:42;11.70;;;6.05;;
74632;SDS011;63139;52.018;8.552;2023-02-28T05:51:14;11.05;;;5.70;;
74632;SDS011;63139;52.018;8.552;2023-02-28T05:53:42;14.77;;;8.15;;
74632;SDS011;63139;52.018;8.552;2023-02-28T05:56:10;10.80;;;6.68;;
74632;SDS011;63139;52.018;8.552;2023-02-28T05:58:38;19.67;;;9.23;;
74632;SDS011;63139;52.018;8.552;2023-02-28T06:01:20;16.65;;;8.27;;
74632;SDS011;63139;52.018;8.552;2023-02-28T06:03:57;17.70;;;9.18;;
74632;SDS011;63139;52.018;8.552;2023-02-28T06:06:25;16.35;;;8.25;;
74632;SDS011;63139;52.018;8.552;2023-02-28T06:08:53;10.15;;;5.72;;
74632;SDS011;63139;52.018;8.552;2023-02-28T06:11:21;15.02;;;7.40;;
74632;SDS011;63139;52.018;8.552;2023-02-28T06:13:54;15.35;;;8.02;;
74632;SDS011;63139;52.018;8.552;2023-02-28T06:16:24;19.15;;;7.80;;
74632;SDS011;63139;52.018;8.552;2023-02-28T06:18:52;11.90;;;6.32;;
74632;SDS011;63139;52.018;8.552;2023-02-28T06:21:22;11.90;;;6.95;;
74632;SDS011;63139;52.018;8.552;2023-02-28T06:23:50;11.40;;;6.97;;
74632;SDS011;63139;52.018;8.552;2023-02-28T06:26:18;12.73;;;7.07;;
74632;SDS011;63139;52.018;8.552;2023-02-28T06:28:46;14.90;;;7.20;;
74632;SDS011;63139;52.018;8.552;2023-02-28T06:31:14;14.07;;;7.00;;
74632;SDS011;63139;52.018;8.552;2023-02-28T06:33:45;15.45;;;6.57;;
74632;SDS011;63139;52.018;8.552;2023-02-28T06:36:14;17.73;;;7.85;;
74632;SDS011;63139;52.018;8.552;2023-02-28T06:38:43;15.23;;;7.47;;
74632;SDS011;63139;52.018;8.552;2023-02-28T06:41:11;14.05;;;7.72;;
74632;SDS011;63139;52.018;8.552;2023-02-28T06:43:41;13.43;;;7.55;;
74632;SDS011;63139;52.018;8.552;2023-02-28T06:46:11;18.30;;;9.02;;
74632;SDS011;63139;52.018;8.552;2023-02-28T06:48:41;16.33;;;9.07;;
74632;SDS011;63139;52.018;8.552;2023-02-28T06:51:12;12.10;;;6.07;;
74632;SDS011;63139;52.018;8.552;2023-02-28T06:53:41;18.38;;;9.75;;
74632;SDS011;63139;52.018;8.552;2023-02-28T06:56:11;17.50;;;8.48;;
74632;SDS011;63139;52.018;8.552;2023-02-28T06:58:39;14.95;;;8.27;;
74632;SDS011;63139;52.018;8.552;2023-02-28T07:01:08;16.60;;;9.18;;
74632;SDS011;63139;52.018;8.552;2023-02-28T07:03:36;17.20;;;9.00;;
74632;SDS011;63139;52.018;8.552;2023-02-28T07:06:04;16.08;;;9.05;;
74632;SDS011;63139;52.018;8.552;2023-02-28T07:08:34;16.70;;;8.07;;
74632;SDS011;63139;52.018;8.552;2023-02-28T07:11:02;14.52;;;7.95;;
74632;SDS011;63139;52.018;8.552;2023-02-28T07:13:30;15.38;;;8.95;;
74632;SDS011;63139;52.018;8.552;2023-02-28T07:15:59;12.48;;;7.40;;
74632;SDS011;63139;52.018;8.552;2023-02-28T07:18:28;15.80;;;8.68;;
74632;SDS011;63139;52.018;8.552;2023-02-28T07:20:56;14.43;;;8.98;;
74632;SDS011;63139;52.018;8.552;2023-02-28T07:23:24;15.43;;;8.93;;
74632;SDS011;63139;52.018;8.552;2023-02-28T07:25:53;13.52;;;8.10;;
74632;SDS011;63139;52.018;8.552;2023-02-28T07:28:21;13.35;;;7.15;;
74632;SDS011;63139;52.018;8.552;2023-02-28T07:30:48;15.40;;;6.50;;
74632;SDS011;63139;52.018;8.552;2023-02-28T07:33:16;16.33;;;7.60;;
74632;SDS011;63139;52.018;8.552;2023-02-28T07:35:44;11.90;;;6.95;;
74632;SDS011;63139;52.018;8.552;2023-02-28T07:38:12;10.10;;;5.30;;
74632;SDS011;63139;52.018;8.552;2023-02-28T07:40:40;17.10;;;8.05;;
74632;SDS011;63139;52.018;8.552;2023-02-28T07:43:09;16.00;;;8.07;;
74632;SDS011;63139;52.018;8.552;2023-02-28T07:45:37;15.32;;;8.07;;
74632;SDS011;63139;52.018;8.552;2023-02-28T07:48:05;15.57;;;7.93;;
74632;SDS011;63139;52.018;8.552;2023-02-28T07:50:33;15.25;;;8.75;;
74632;SDS011;63139;52.018;8.552;2023-02-28T07:53:01;14.98;;;8.90;;
74632;SDS011;63139;52.018;8.552;2023-02-28T07:55:29;12.35;;;6.85;;
74632;SDS011;63139;52.018;8.552;2023-02-28T07:57:56;16.67;;;9.25;;
74632;SDS011;63139;52.018;8.552;2023-02-28T08:00:26;15.13;;;8.52;;
74632;SDS011;63139;52.018;8.552;2023-02-28T08:02:55;22.58;;;10.50;;
74632;SDS011;63139;52.018;8.552;2023-02-28T08:05:23;23.98;;;8.32;;
74632;SDS011;63139;52.018;8.552;2023-02-28T08:07:50;15.95;;;9.48;;
74632;SDS011;63139;52.018;8.552;2023-02-28T08:10:19;23.88;;;10.90;;
74632;SDS011;63139;52.018;8.552;2023-02-28T08:12:47;12.32;;;7.82;;
74632;SDS011;63139;52.018;8.552;2023-02-28T08:15:15;16.15;;;8.32;;
74632;SDS011;63139;52.018;8.552;2023-02-28T08:17:44;13.52;;;7.60;;
74632;SDS011;63139;52.018;8.552;2023-02-28T08:20:12;14.05;;;9.23;;
74632;SDS011;63139;52.018;8.552;2023-02-28T08:22:39;11.68;;;7.18;;
74632;SDS011;63139;52.018;8.552;2023-02-28T08:25:11;16.98;;;6.88;;
74632;SDS011;63139;52.018;8.552;2023-02-28T08:27:38;17.20;;;7.75;;
74632;SDS011;63139;52.018;8.552;2023-02-28T08:30:07;16.10;;;7.60;;
74632;SDS011;63139;52.018;8.552;2023-02-28T08:32:36;14.38;;;6.75;;
74632;SDS011;63139;52.018;8.552;2023-02-28T08:35:06;12.48;;;7.68;;
74632;SDS011;63139;52.018;8.552;2023-02-28T08:37:36;10.50;;;6.60;;
74632;SDS011;63139;52.018;8.552;2023-02-28T08:40:04;18.17;;;7.88;;
74632;SDS011;63139;52.018;8.552;2023-02-28T08:42:33;10.30;;;5.80;;
74632;SDS011;63139;52.018;8.552;2023-02-28T08:45:01;12.27;;;7.65;;
74632;SDS011;63139;52.018;8.552;2023-02-28T08:47:29;8.15;;;5.32;;
74632;SDS011;63139;52.018;8.552;2023-02-28T08:49:56;6.70;;;4.70;;
74632;SDS011;63139;52.018;8.552;2023-02-28T08:52:26;10.20;;;4.38;;
74632;SDS011;63139;52.018;8.552;2023-02-28T08:54:54;6.28;;;4.45;;
74632;SDS011;63139;52.018;8.552;2023-02-28T08:57:21;8.35;;;4.78;;
74632;SDS011;63139;52.018;8.552;2023-02-28T08:59:49;12.50;;;4.50;;
74632;SDS011;63139;52.018;8.552;2023-02-28T09:02:17;8.27;;;4.95;;
74632;SDS011;63139;52.018;8.552;2023-02-28T09:04:45;7.65;;;5.03;;
74632;SDS011;63139;52.018;8.552;2023-02-28T09:07:13;7.90;;;4.88;;
74632;SDS011;63139;52.018;8.552;2023-02-28T09:09:43;6.63;;;4.63;;
74632;SDS011;63139;52.018;8.552;2023-02-28T09:12:21;6.93;;;4.35;;
74632;SDS011;63139;52.018;8.552;2023-02-28T09:14:49;4.60;;;3.72;;
74632;SDS011;63139;52.018;8.552;2023-02-28T09:17:17;5.90;;;4.03;;
74632;SDS011;63139;52.018;8.552;2023-02-28T09:19:47;10.13;;;4.88;;
74632;SDS011;63139;52.018;8.552;2023-02-28T09:22:15;9.27;;;4.47;;
74632;SDS011;63139;52.018;8.552;2023-02-28T09:24:44;8.60;;;4.72;;
74632;SDS011;63139;52.018;8.552;2023-02-28T09:27:12;6.90;;;4.38;;
74632;SDS011;63139;52.018;8.552;2023-02-28T09:29:39;10.00;;;4.80;;
74632;SDS011;63139;52.018;8.552;2023-02-28T09:32:07;8.18;;;4.00;;
74632;SDS011;63139;52.018;8.552;2023-02-28T09:34:35;10.73;;;4.10;;
74632;SDS011;63139;52.018;8.552;2023-02-28T09:37:03;7.82;;;3.67;;
74632;SDS011;63139;52.018;8.552;2023-02-28T09:39:31;4.40;;;3.38;;
74632;SDS011;63139;52.018;8.552;2023-02-28T09:42:00;9.32;;;4.30;;
74632;SDS011;63139;52.018;8.552;2023-02-28T09:44:31;6.45;;;4.05;;
74632;SDS011;63139;52.018;8.552;2023-02-28T09:47:05;10.75;;;4.00;;
74632;SDS011;63139;52.018;8.552;2023-02-28T09:49:41;5.63;;;3.95;;
74632;SDS011;63139;52.018;8.552;2023-02-28T09:52:14;7.20;;;4.55;;
74632;SDS011;63139;52.018;8.552;2023-02-28T09:54:45;10.55;;;3.75;;
74632;SDS011;63139;52.018;8.552;2023-02-28T09:57:16;5.32;;;3.45;;
74632;SDS011;63139;52.018;8.552;2023-02-28T09:59:54;6.25;;;3.42;;
74632;SDS011;63139;52.018;8.552;2023-02-28T10:02:49;9.45;;;3.20;;
74632;SDS011;63139;52.018;8.552;2023-02-28T10:05:26;6.97;;;3.50;;
74632;SDS011;63139;52.018;8.552;2023-02-28T10:08:02;5.22;;;3.45;;
74632;SDS011;63139;52.018;8.552;2023-02-28T10:10:36;3.88;;;3.00;;
74632;SDS011;63139;52.018;8.552;2023-02-28T10:13:12;4.80;;;2.90;;
74632;SDS011;63139;52.018;8.552;2023-02-28T10:15:46;7.15;;;2.80;;
74632;SDS011;63139;52.018;8.552;2023-02-28T10:18:20;3.80;;;2.78;;
74632;SDS011;63139;52.018;8.552;2023-02-28T10:20:50;9.85;;;3.40;;
74632;SDS011;63139;52.018;8.552;2023-02-28T10:23:20;4.90;;;2.83;;
74632;SDS011;63139;52.018;8.552;2023-02-28T10:25:52;4.82;;;2.65;;
74632;SDS011;63139;52.018;8.552;2023-02-28T10:28:25;5.18;;;2.80;;
74632;SDS011;63139;52.018;8.552;2023-02-28T10:31:00;3.95;;;2.40;;
74632;SDS011;63139;52.018;8.552;2023-02-28T10:33:28;3.65;;;2.20;;
74632;SDS011;63139;52.018;8.552;2023-02-28T10:35:58;3.20;;;2.20;;
74632;SDS011;63139;52.018;8.552;2023-02-28T10:38:27;7.40;;;2.47;;
74632;SDS011;63139;52.018;8.552;2023-02-28T10:41:05;3.20;;;2.30;;
74632;SDS011;63139;52.018;8.552;2023-02-28T10:43:37;3.00;;;1.80;;
74632;SDS011;63139;52.018;8.552;2023-02-28T10:46:10;4.10;;;1.80;;
74632;SDS011;63139;52.018;8.552;2023-02-28T10:48:42;2.88;;;1.73;;
74632;SDS011;63139;52.018;8.552;2023-02-28T10:51:15;3.92;;;1.75;;
74632;SDS011;63139;52.018;8.552;2023-02-28T10:53:47;1.85;;;1.35;;
74632;SDS011;63139;52.018;8.552;2023-02-28T10:56:27;2.45;;;1.77;;
74632;SDS011;63139;52.018;8.552;2023-02-28T10:58:58;1.50;;;1.27;;
74632;SDS011;63139;52.018;8.552;2023-02-28T11:01:34;3.05;;;1.70;;
74632;SDS011;63139;52.018;8.552;2023-02-28T11:04:12;2.22;;;1.52;;
74632;SDS011;63139;52.018;8.552;2023-02-28T11:06:45;2.88;;;1.70;;
74632;SDS011;63139;52.018;8.552;2023-02-28T11:09:21;2.38;;;1.40;;
74632;SDS011;63139;52.018;8.552;2023-02-28T11:11:53;1.77;;;1.40;;
74632;SDS011;63139;52.018;8.552;2023-02-28T11:14:22;1.60;;;1.40;;
74632;SDS011;63139;52.018;8.552;2023-02-28T11:16:53;1.70;;;1.23;;
74632;SDS011;63139;52.018;8.552;2023-02-28T11:19:24;1.98;;;1.25;;
74632;SDS011;63139;52.018;8.552;2023-02-28T11:21:55;5.68;;;1.40;;
74632;SDS011;63139;52.018;8.552;2023-02-28T11:24:26;2.10;;;1.40;;
74632;SDS011;63139;52.018;8.552;2023-02-28T11:26:55;1.42;;;1.20;;
74632;SDS011;63139;52.018;8.552;2023-02-28T11:29:26;2.05;;;1.40;;
74632;SDS011;63139;52.018;8.552;2023-02-28T11:32:03;3.65;;;1.50;;
74632;SDS011;63139;52.018;8.552;2023-02-28T11:34:43;3.00;;;1.40;;
74632;SDS011;63139;52.018;8.552;2023-02-28T11:37:13;5.53;;;1.60;;
74632;SDS011;63139;52.018;8.552;2023-02-28T11:39:43;2.53;;;1.50;;
74632;SDS011;63139;52.018;8.552;2023-02-28T11:42:19;3.55;;;1.60;;
74632;SDS011;63139;52.018;8.552;2023-02-28T11:45:03;2.67;;;1.75;;
74632;SDS011;63139;52.018;8.552;2023-02-28T11:47:43;1.98;;;1.50;;
74632;SDS011;63139;52.018;8.552;2023-02-28T11:50:16;2.72;;;1.85;;
74632;SDS011;63139;52.018;8.552;2023-02-28T11:52:53;4.20;;;1.92;;
74632;SDS011;63139;52.018;8.552;2023-02-28T11:55:24;5.28;;;2.42;;
74632;SDS011;63139;52.018;8.552;2023-02-28T11:58:07;5.55;;;1.75;;
74632;SDS011;63139;52.018;8.552;2023-02-28T12:00:49;2.70;;;1.90;;
74632;SDS011;63139;52.018;8.552;2023-02-28T12:03:38;3.25;;;2.17;;
74632;SDS011;63139;52.018;8.552;2023-02-28T12:06:17;1.73;;;1.63;;
74632;SDS011;63139;52.018;8.552;2023-02-28T12:08:52;4.63;;;2.10;;
74632;SDS011;63139;52.018;8.552;2023-02-28T12:11:34;2.75;;;2.05;;
74632;SDS011;63139;52.018;8.552;2023-02-28T12:17:21;4.32;;;2.00;;
74632;SDS011;63139;52.018;8.552;2023-02-28T12:20:02;2.90;;;2.10;;
74632;SDS011;63139;52.018;8.552;2023-02-28T12:22:42;3.60;;;2.00;;
74632;SDS011;63139;52.018;8.552;2023-02-28T12:28:19;3.38;;;1.85;;
74632;SDS011;63139;52.018;8.552;2023-02-28T12:30:51;4.40;;;2.20;;
74632;SDS011;63139;52.018;8.552;2023-02-28T12:33:27;1.92;;;1.67;;
74632;SDS011;63139;52.018;8.552;2023-02-28T12:36:00;2.38;;;1.90;;
74632;SDS011;63139;52.018;8.552;2023-02-28T12:38:34;3.03;;;2.35;;
74632;SDS011;63139;52.018;8.552;2023-02-28T12:41:05;3.13;;;2.00;;
74632;SDS011;63139;52.018;8.552;2023-02-28T12:43:40;3.35;;;2.00;;
74632;SDS011;63139;52.018;8.552;2023-02-28T12:46:12;2.72;;;1.83;;
74632;SDS011;63139;52.018;8.552;2023-02-28T12:48:47;4.55;;;1.98;;
74632;SDS011;63139;52.018;8.552;2023-02-28T12:51:19;2.22;;;1.75;;
74632;SDS011;63139;52.018;8.552;2023-02-28T12:53:50;5.53;;;1.98;;
74632;SDS011;63139;52.018;8.552;2023-02-28T12:56:29;4.30;;;2.50;;
74632;SDS011;63139;52.018;8.552;2023-02-28T12:59:04;2.70;;;1.95;;
74632;SDS011;63139;52.018;8.552;2023-02-28T13:01:48;3.08;;;1.98;;
74632;SDS011;63139;52.018;8.552;2023-02-28T13:04:40;3.10;;;1.83;;
74632;SDS011;63139;52.018;8.552;2023-02-28T13:07:24;3.60;;;2.20;;
74632;SDS011;63139;52.018;8.552;2023-02-28T13:10:12;3.80;;;2.22;;
74632;SDS011;63139;52.018;8.552;2023-02-28T13:12:47;5.25;;;2.50;;
74632;SDS011;63139;52.018;8.552;2023-02-28T13:15:17;3.80;;;2.20;;
74632;SDS011;63139;52.018;8.552;2023-02-28T13:17:48;3.95;;;2.55;;
74632;SDS011;63139;52.018;8.552;2023-02-28T13:20:20;4.50;;;2.28;;
74632;SDS011;63139;52.018;8.552;2023-02-28T13:22:51;4.00;;;2.10;;
74632;SDS011;63139;52.018;8.552;2023-02-28T13:31:41;3.00;;;1.80;;
74632;SDS011;63139;52.018;8.552;2023-02-28T13:35:12;2.80;;;1.97;;
74632;SDS011;63139;52.018;8.552;2023-02-28T13:37:44;7.65;;;2.40;;
74632;SDS011;63139;52.018;8.552;2023-02-28T13:40:27;3.67;;;2.47;;
74632;SDS011;63139;52.018;8.552;2023-02-28T13:43:03;4.50;;;2.50;;
74632;SDS011;63139;52.018;8.552;2023-02-28T13:45:35;4.07;;;2.40;;
74632;SDS011;63139;52.018;8.552;2023-02-28T13:48:05;3.40;;;2.25;;
74632;SDS011;63139;52.018;8.552;2023-02-28T13:50:45;4.80;;;2.53;;
74632;SDS011;63139;52.018;8.552;2023-02-28T13:56:22;2.85;;;2.45;;
74632;SDS011;63139;52.018;8.552;2023-02-28T13:58:58;5.30;;;2.50;;
74632;SDS011;63139;52.018;8.552;2023-02-28T14:01:44;4.70;;;2.60;;
74632;SDS011;63139;52.018;8.552;2023-02-28T14:04:33;5.28;;;2.38;;
74632;SDS011;63139;52.018;8.552;2023-02-28T14:07:17;5.20;;;2.80;;
74632;SDS011;63139;52.018;8.552;2023-02-28T14:09:51;6.25;;;2.53;;
74632;SDS011;63139;52.018;8.552;2023-02-28T14:18:18;5.85;;;2.30;;
74632;SDS011;63139;52.018;8.552;2023-02-28T14:20:53;4.10;;;2.30;;
74632;SDS011;63139;52.018;8.552;2023-02-28T14:23:30;2.90;;;2.28;;
74632;SDS011;63139;52.018;8.552;2023-02-28T14:26:07;4.15;;;2.40;;
74632;SDS011;63139;52.018;8.552;2023-02-28T14:28:49;5.03;;;3.15;;
74632;SDS011;63139;52.018;8.552;2023-02-28T14:31:29;4.85;;;2.67;;
74632;SDS011;63139;52.018;8.552;2023-02-28T14:34:19;3.42;;;2.50;;
74632;SDS011;63139;52.018;8.552;2023-02-28T14:37:00;3.58;;;2.60;;
74632;SDS011;63139;52.018;8.552;2023-02-28T14:39:30;5.85;;;2.47;;
74632;SDS011;63139;52.018;8.552;2023-02-28T14:42:01;3.20;;;2.30;;
74632;SDS011;63139;52.018;8.552;2023-02-28T14:44:31;4.35;;;2.40;;
74632;SDS011;63139;52.018;8.552;2023-02-28T14:46:59;3.55;;;2.50;;
74632;SDS011;63139;52.018;8.552;2023-02-28T14:49:34;3.05;;;2.40;;
74632;SDS011;63139;52.018;8.552;2023-02-28T14:52:09;4.07;;;2.47;;
74632;SDS011;63139;52.018;8.552;2023-02-28T14:54:42;5.97;;;3.28;;
74632;SDS011;63139;52.018;8.552;2023-02-28T14:57:21;3.35;;;2.10;;
74632;SDS011;63139;52.018;8.552;2023-02-28T14:59:56;5.00;;;2.63;;
74632;SDS011;63139;52.018;8.552;2023-02-28T15:02:29;4.33;;;2.70;;
74632;SDS011;63139;52.018;8.552;2023-02-28T15:05:01;4.45;;;2.53;;
74632;SDS011;63139;52.018;8.552;2023-02-28T15:07:43;3.55;;;2.60;;
74632;SDS011;63139;52.018;8.552;2023-02-28T15:10:16;4.10;;;2.90;;
74632;SDS011;63139;52.018;8.552;2023-02-28T15:12:51;5.22;;;2.70;;
74632;SDS011;63139;52.018;8.552;2023-02-28T15:15:22;3.78;;;3.00;;
74632;SDS011;63139;52.018;8.552;2023-02-28T15:18:06;6.28;;;2.70;;
74632;SDS011;63139;52.018;8.552;2023-02-28T15:20:39;7.22;;;2.85;;
74632;SDS011;63139;52.018;8.552;2023-02-28T15:23:09;3.92;;;2.80;;
74632;SDS011;63139;52.018;8.552;2023-02-28T15:25:39;4.93;;;2.90;;
74632;SDS011;63139;52.018;8.552;2023-02-28T15:28:11;4.65;;;2.97;;
74632;SDS011;63139;52.018;8.552;2023-02-28T15:30:50;4.60;;;2.70;;
74632;SDS011;63139;52.018;8.552;2023-02-28T15:33:20;4.72;;;2.58;;
74632;SDS011;63139;52.018;8.552;2023-02-28T15:35:50;3.90;;;2.20;;
74632;SDS011;63139;52.018;8.552;2023-02-28T15:38:21;3.70;;;2.80;;
74632;SDS011;63139;52.018;8.552;2023-02-28T15:40:51;3.60;;;2.90;;